Pagrindinis puslapis
METAR-TAF:

METAR-TAF

Oro uostai :

Samujis, Tailandas

platuma: 09-32-52N, ilguma: 100-03-44E, Aukštis: 20 m

Dabartinis oras

Ataskaita buvo paskelbta 34 minutes, ne 14:00 UTC
Vėjas 2 kt iš Vakarų
Temperatūra 28°C
Drėgmė 84%
Slėgis 1011 hPa
Matomumas 10 km arba daugiau
Mažai debesys ne aukštis 2000 ft

METAR: VTSM 171400Z 28002KT 9999 FEW020 28/25 Q1011 NOSIG

Laikas: 21:34 (14:34 UTC)

Prognozė

Ataskaita buvo paskelbta 3 valandos ir 34 minutes, ne 11:00 UTC
Prognozė galioja nuo 17 metu 12 UTC su 18 metu 12 UTC
Vėjas 7 kt iš Vakarų
Matomumas 10 km arba daugiau
Mažai debesys ne aukštis 2000 ft

TAF: VTSM 171100Z 1712/1812 28007KT 9999 FEW020

Orai ataskaitas ir orų prognozės (METAR, TAF).

turimą stotys yra geltonos ir raudonos taškus žemėlapyje.

Perkelti pele per norėdami pamatyti stoties vardą.

Tada spustelėkite, norėdami matyti oro stebėjimo ir prognozės.

Norėdami pakeisti žemėlapį: spustelėkite ant žalios mygtukų su juodo kryžiaus žemyn,; žalią mygtuką su brūkšneliu, jei norite nutolinti; arba žalių rodyklių gretimoms žemėlapius.


METAR-TAF: